Terminal Aerodrome Forecast
Issued by NWS

Home | Current Version | Previous Version | Text Only | Print | Product List | Glossary On
Versions: 1 2 3 4 5 6 7 8 9 10 11 12 13 14 15 16 17 18 19 20 21 22 23 24 25 26 27 28 29 30 31
000
FTUS43 KLOT 172158 AAC
TAFMDW
TAF AMD
KMDW 172158Z 1722/1824 21010KT 1/2SM SN FG VV007
      TEMPO 1722/1723 1/4SM +SN FG VV005
     FM172300 23012KT 3SM -SN BR OVC012
     FM172330 28012G20KT P6SM BKN015
     FM180300 27009KT P6SM FEW250
     FM181100 16008KT P6SM FEW005 SCT250
     FM181600 17011KT P6SM SCT250
     FM181900 18015G24KT P6SM BKN250=

USA.gov is the U.S. government's official web portal to all federal, state and local government web resources and services.